createdAt,value
2018-08-25T00:01:38.721Z,3.12
2018-08-25T00:04:07.630Z,3.35
2018-08-25T00:06:36.517Z,3.33
2018-08-25T00:09:07.979Z,3.65
2018-08-25T00:11:36.894Z,4.75
2018-08-25T00:14:05.986Z,3.62
2018-08-25T00:16:34.981Z,3.10
2018-08-25T00:19:03.906Z,3.25
2018-08-25T00:21:32.830Z,2.92
2018-08-25T00:24:01.739Z,2.85
2018-08-25T00:26:30.654Z,3.80
2018-08-25T00:28:59.542Z,3.33
2018-08-25T00:31:28.438Z,3.25
2018-08-25T00:33:57.346Z,4.47
2018-08-25T00:36:26.247Z,3.15
2018-08-25T00:38:55.282Z,2.62
2018-08-25T00:41:24.187Z,3.10
2018-08-25T00:43:53.178Z,3.10
2018-08-25T00:46:22.097Z,4.37
2018-08-25T00:48:51.086Z,2.92
2018-08-25T00:51:20.621Z,3.65
2018-08-25T00:53:49.547Z,3.50
2018-08-25T00:56:18.430Z,2.50
2018-08-25T00:58:47.319Z,3.72
2018-08-25T01:01:16.201Z,3.40
2018-08-25T01:03:45.118Z,2.92
2018-08-25T01:06:14.055Z,3.10
2018-08-25T01:08:43.071Z,3.52
2018-08-25T01:11:11.979Z,3.30
2018-08-25T01:13:40.866Z,3.50
2018-08-25T01:16:09.762Z,3.33
2018-08-25T01:18:38.643Z,2.90
2018-08-25T01:21:07.591Z,3.90
2018-08-25T01:23:36.475Z,3.05
2018-08-25T01:26:05.367Z,2.80
2018-08-25T01:28:34.266Z,2.67
2018-08-25T01:31:03.229Z,3.08
2018-08-25T01:33:32.123Z,2.62
2018-08-25T01:36:01.031Z,2.55
2018-08-25T01:38:29.982Z,3.05
2018-08-25T01:40:59.051Z,3.35
2018-08-25T01:43:27.976Z,3.05
2018-08-25T01:45:56.874Z,2.95
2018-08-25T01:48:25.819Z,3.22
2018-08-25T01:50:54.739Z,2.75
2018-08-25T01:53:23.694Z,3.17
2018-08-25T01:55:52.718Z,2.72
2018-08-25T01:58:21.646Z,2.72
2018-08-25T02:00:50.540Z,3.02
2018-08-25T02:03:19.450Z,3.83
2018-08-25T02:05:48.339Z,3.40
2018-08-25T02:08:17.230Z,2.95
2018-08-25T02:10:46.197Z,2.98
2018-08-25T02:13:15.063Z,3.40
2018-08-25T02:15:43.957Z,2.65
2018-08-25T02:18:12.842Z,3.00
2018-08-25T02:20:41.738Z,3.20
2018-08-25T02:23:10.617Z,3.52
2018-08-25T02:25:39.506Z,3.08
2018-08-25T02:28:08.375Z,3.02
2018-08-25T02:30:37.347Z,3.55
2018-08-25T02:33:06.390Z,2.72
2018-08-25T02:35:35.283Z,2.37
2018-08-25T02:38:04.176Z,2.30
2018-08-25T02:40:33.082Z,2.95
2018-08-25T02:43:01.962Z,3.00
2018-08-25T02:45:30.827Z,3.00
2018-08-25T02:47:59.726Z,3.22
2018-08-25T02:50:28.602Z,2.92
2018-08-25T02:52:57.480Z,2.62
2018-08-25T02:55:26.399Z,2.95
2018-08-25T02:57:55.297Z,2.70
2018-08-25T03:00:24.246Z,2.42
2018-08-25T03:02:53.354Z,2.60
2018-08-25T03:05:22.278Z,2.87
2018-08-25T03:07:51.253Z,3.65
2018-08-25T03:10:20.298Z,2.77
2018-08-25T03:12:49.235Z,3.05
2018-08-25T03:15:18.129Z,2.58
2018-08-25T03:17:47.015Z,3.70
2018-08-25T03:20:15.907Z,3.20
2018-08-25T03:22:44.843Z,2.85
2018-08-25T03:25:13.755Z,2.42
2018-08-25T03:27:42.656Z,2.62
2018-08-25T03:30:11.541Z,4.70
2018-08-25T03:32:40.410Z,2.90
2018-08-25T03:35:09.303Z,2.87
2018-08-25T03:37:38.176Z,3.50
2018-08-25T03:40:07.178Z,2.60
2018-08-25T03:42:36.062Z,2.90
2018-08-25T03:45:05.030Z,2.40
2018-08-25T03:47:33.918Z,2.75
2018-08-25T03:50:02.802Z,3.10
2018-08-25T03:52:31.682Z,3.20
2018-08-25T03:55:00.625Z,2.77
2018-08-25T03:57:29.510Z,2.67
2018-08-25T03:59:58.402Z,3.22
2018-08-25T04:02:27.306Z,3.37
2018-08-25T04:04:56.238Z,2.72
2018-08-25T04:07:25.137Z,3.77
2018-08-25T04:09:54.127Z,2.67
2018-08-25T04:12:23.074Z,2.42
2018-08-25T04:14:52.073Z,2.52
2018-08-25T04:17:20.913Z,2.75
2018-08-25T04:19:49.838Z,2.83
2018-08-25T04:22:18.756Z,2.65
2018-08-25T04:24:47.653Z,2.45
2018-08-25T04:27:17.646Z,2.37
2018-08-25T04:29:46.533Z,2.27
2018-08-25T04:32:15.426Z,2.10
2018-08-25T04:34:44.585Z,2.30
2018-08-25T04:37:13.455Z,2.83
2018-08-25T04:39:42.346Z,2.00
2018-08-25T04:42:11.222Z,1.85
2018-08-25T04:44:40.106Z,2.33
2018-08-25T04:47:08.982Z,2.60
2018-08-25T04:49:37.870Z,2.55
2018-08-25T04:52:06.878Z,2.30
2018-08-25T04:54:35.798Z,1.92
2018-08-25T04:57:04.906Z,2.15
2018-08-25T04:59:33.918Z,1.85
2018-08-25T05:02:02.841Z,2.00
2018-08-25T05:04:31.682Z,2.45
2018-08-25T05:07:00.730Z,2.62
2018-08-25T05:09:29.726Z,1.70
2018-08-25T05:11:58.586Z,1.70
2018-08-25T05:14:27.486Z,1.67
2018-08-25T05:16:56.419Z,2.02
2018-08-25T05:19:25.382Z,1.80
2018-08-25T05:21:54.339Z,1.77
2018-08-25T05:24:23.311Z,1.77
2018-08-25T05:26:52.305Z,1.87
2018-08-25T05:29:21.405Z,1.42
2018-08-25T05:31:51.521Z,1.55
2018-08-25T05:34:20.441Z,1.92
2018-08-25T05:36:49.365Z,2.42
2018-08-25T05:39:18.262Z,2.05
2018-08-25T05:41:48.038Z,1.85
2018-08-25T05:44:16.957Z,1.87
2018-08-25T05:46:45.811Z,1.92
2018-08-25T05:49:14.962Z,2.12
2018-08-25T05:51:43.882Z,1.52
2018-08-25T05:54:12.808Z,2.42
2018-08-25T05:56:41.742Z,1.85
2018-08-25T05:59:10.634Z,1.87
2018-08-25T06:01:39.531Z,1.87
2018-08-25T06:04:08.490Z,1.90
2018-08-25T06:06:37.573Z,2.27
2018-08-25T06:09:09.182Z,1.80
2018-08-25T06:11:38.092Z,1.75
2018-08-25T06:14:07.293Z,1.87
2018-08-25T06:16:36.410Z,2.05
2018-08-25T06:19:05.347Z,2.47
2018-08-25T06:21:34.231Z,1.82
2018-08-25T06:24:03.113Z,2.70
2018-08-25T06:26:32.003Z,1.87
2018-08-25T06:29:00.883Z,1.70
2018-08-25T06:31:29.942Z,2.37
2018-08-25T06:33:58.834Z,2.05
2018-08-25T06:36:27.772Z,1.92
2018-08-25T06:38:56.628Z,1.80
2018-08-25T06:41:25.623Z,1.90
2018-08-25T06:43:54.639Z,1.62
2018-08-25T06:46:23.550Z,2.20
2018-08-25T06:48:52.532Z,1.70
2018-08-25T06:51:21.426Z,1.75
2018-08-25T06:53:50.323Z,2.05
2018-08-25T06:56:19.226Z,2.52
2018-08-25T06:58:48.118Z,2.90
2018-08-25T07:01:17.037Z,2.10
2018-08-25T07:03:45.949Z,1.80
2018-08-25T07:06:14.840Z,1.60
2018-08-25T07:08:43.726Z,1.82
2018-08-25T07:11:12.625Z,2.25
2018-08-25T07:13:41.506Z,2.50
2018-08-25T07:16:10.473Z,2.35
2018-08-25T07:18:39.359Z,2.22
2018-08-25T07:21:08.230Z,1.65
2018-08-25T07:23:37.178Z,2.15
2018-08-25T07:26:06.140Z,1.92
2018-08-25T07:28:34.982Z,2.00
2018-08-25T07:31:03.856Z,2.50
2018-08-25T07:33:32.739Z,1.92
2018-08-25T07:36:01.623Z,2.40
2018-08-25T07:38:30.510Z,2.30
2018-08-25T07:40:59.402Z,2.17
2018-08-25T07:43:28.301Z,1.95
2018-08-25T07:45:57.194Z,1.98
2018-08-25T07:48:26.112Z,1.87
2018-08-25T07:50:55.051Z,2.50
2018-08-25T07:53:24.517Z,2.08
2018-08-25T07:55:53.535Z,1.87
2018-08-25T07:58:23.297Z,2.27
2018-08-25T08:00:52.258Z,1.85
2018-08-25T08:03:21.787Z,2.02
2018-08-25T08:05:50.739Z,2.10
2018-08-25T08:08:19.648Z,2.30
2018-08-25T08:10:48.590Z,2.60
2018-08-25T08:13:17.846Z,2.20
2018-08-25T08:15:46.727Z,2.77
2018-08-25T08:18:15.655Z,2.85
2018-08-25T08:20:44.619Z,2.30
2018-08-25T08:23:13.524Z,2.65
2018-08-25T08:25:42.394Z,1.95
2018-08-25T08:28:11.299Z,2.95
2018-08-25T08:30:40.264Z,2.00
2018-08-25T08:33:09.210Z,2.30
2018-08-25T08:35:38.190Z,2.67
2018-08-25T08:38:07.101Z,2.72
2018-08-25T08:40:36.406Z,2.40
2018-08-25T08:43:05.319Z,2.10
2018-08-25T08:45:34.411Z,2.08
2018-08-25T08:48:03.270Z,2.10
2018-08-25T08:50:32.304Z,2.77
2018-08-25T08:53:01.099Z,2.75
2018-08-25T08:55:30.131Z,2.35
2018-08-25T08:57:59.046Z,2.10
2018-08-25T09:00:27.930Z,2.60
2018-08-25T09:02:56.851Z,2.33
2018-08-25T09:05:25.823Z,1.85
2018-08-25T09:07:54.774Z,2.12
2018-08-25T09:10:23.715Z,2.55
2018-08-25T09:12:52.642Z,2.52
2018-08-25T09:15:21.678Z,2.37
2018-08-25T09:17:50.639Z,2.52
2018-08-25T09:20:19.515Z,2.85
2018-08-25T09:22:48.426Z,2.37
2018-08-25T09:25:17.313Z,2.92
2018-08-25T09:27:46.218Z,2.40
2018-08-25T09:30:15.150Z,2.30
2018-08-25T09:32:44.102Z,2.50
2018-08-25T09:35:13.079Z,3.05
2018-08-25T09:37:41.986Z,3.02
2018-08-25T09:40:10.866Z,2.40
2018-08-25T09:42:39.765Z,3.27
2018-08-25T09:45:08.766Z,2.55
2018-08-25T09:47:37.653Z,2.60
2018-08-25T09:50:07.497Z,2.65
2018-08-25T09:52:36.679Z,3.05
2018-08-25T09:55:06.555Z,2.30
2018-08-25T09:57:35.421Z,1.77
2018-08-25T10:00:04.722Z,2.42
2018-08-25T10:02:33.713Z,1.90
2018-08-25T10:05:02.762Z,1.60
2018-08-25T10:07:31.814Z,2.00
2018-08-25T10:10:00.711Z,2.17
2018-08-25T10:12:29.608Z,1.72
2018-08-25T10:14:58.497Z,2.58
2018-08-25T10:17:27.559Z,2.02
2018-08-25T10:19:56.482Z,2.15
2018-08-25T10:22:25.434Z,2.00
2018-08-25T10:24:54.370Z,2.10
2018-08-25T10:27:23.445Z,2.50
2018-08-25T10:29:52.527Z,1.70
2018-08-25T10:32:21.758Z,2.80
2018-08-25T10:34:50.742Z,1.40
2018-08-25T10:37:19.633Z,1.75
2018-08-25T10:39:48.532Z,1.12
2018-08-25T10:42:17.407Z,1.40
2018-08-25T10:44:46.312Z,1.00
2018-08-25T10:47:15.186Z,1.20
2018-08-25T10:49:44.074Z,1.52
2018-08-25T10:52:12.988Z,1.32
2018-08-25T10:54:42.794Z,1.00
2018-08-25T10:57:11.675Z,1.60
2018-08-25T10:59:40.565Z,1.92
2018-08-25T11:02:19.314Z,1.75
2018-08-25T11:04:48.199Z,1.42
2018-08-25T11:07:24.434Z,1.10
2018-08-25T11:09:54.114Z,1.20
2018-08-25T11:12:23.675Z,1.22
2018-08-25T11:14:52.733Z,1.25
2018-08-25T11:17:21.854Z,1.22
2018-08-25T11:19:50.823Z,1.40
2018-08-25T11:22:19.765Z,1.47
2018-08-25T11:24:48.710Z,1.05
2018-08-25T11:27:17.574Z,2.45
2018-08-25T11:29:48.166Z,1.55
2018-08-25T11:32:17.278Z,1.42
2018-08-25T11:34:46.326Z,1.22
2018-08-25T11:37:15.427Z,1.67
2018-08-25T11:39:44.746Z,2.02
2018-08-25T11:42:13.602Z,2.22
2018-08-25T11:44:42.542Z,1.32
2018-08-25T11:47:15.846Z,2.00
2018-08-25T11:49:46.130Z,1.87
2018-08-25T11:52:15.286Z,1.92
2018-08-25T11:54:44.678Z,1.60
2018-08-25T11:57:16.483Z,1.40
2018-08-25T11:59:45.459Z,1.52
2018-08-25T12:02:14.548Z,1.60
2018-08-25T12:04:45.401Z,1.90
2018-08-25T12:07:14.283Z,1.95
2018-08-25T12:09:43.195Z,1.77
2018-08-25T12:12:12.078Z,1.40
2018-08-25T12:14:40.974Z,1.30
2018-08-25T12:17:09.846Z,1.05
2018-08-25T12:19:38.737Z,1.25
2018-08-25T12:22:07.869Z,1.50
2018-08-25T12:24:36.851Z,1.00
2018-08-25T12:27:06.126Z,1.72
2018-08-25T12:29:35.029Z,1.60
2018-08-25T12:32:03.916Z,1.00
2018-08-25T12:34:32.839Z,1.05
2018-08-25T12:37:01.696Z,1.20
2018-08-25T12:39:30.610Z,1.60
2018-08-25T12:41:59.474Z,1.22
2018-08-25T12:44:28.398Z,1.20
2018-08-25T12:46:57.482Z,1.70
2018-08-25T12:49:26.415Z,2.00
2018-08-25T12:51:55.346Z,2.35
2018-08-25T12:54:24.450Z,1.10
2018-08-25T12:56:53.351Z,1.00
2018-08-25T12:59:22.374Z,1.05
2018-08-25T13:01:51.308Z,1.65
2018-08-25T13:04:20.582Z,1.40
2018-08-25T13:06:49.466Z,1.07
2018-08-25T13:09:18.553Z,0.98
2018-08-25T13:11:47.527Z,1.30
2018-08-25T13:14:16.534Z,0.95
2018-08-25T13:16:45.421Z,1.00
2018-08-25T13:19:14.318Z,1.02
2018-08-25T13:21:43.233Z,1.40
2018-08-25T13:24:12.175Z,0.90
2018-08-25T13:26:41.067Z,0.90
2018-08-25T13:29:10.077Z,1.07
2018-08-25T13:31:39.046Z,0.95
2018-08-25T13:34:07.948Z,0.80
2018-08-25T13:36:37.075Z,1.20
2018-08-25T13:39:08.310Z,0.75
2018-08-25T13:41:37.775Z,0.90
2018-08-25T13:44:07.136Z,0.82
2018-08-25T13:46:36.138Z,0.95
2018-08-25T13:49:05.208Z,1.07
2018-08-25T13:51:34.253Z,0.90
2018-08-25T13:54:03.278Z,1.00
2018-08-25T13:56:32.182Z,1.00
2018-08-25T13:59:01.167Z,0.90
2018-08-25T14:01:30.263Z,0.88
2018-08-25T14:03:59.678Z,0.80
2018-08-25T14:06:29.401Z,0.75
2018-08-25T14:08:58.958Z,0.70
2018-08-25T14:11:27.858Z,1.20
2018-08-25T14:13:56.837Z,1.62
2018-08-25T14:17:29.023Z,1.20
2018-08-25T14:19:58.120Z,0.90
2018-08-25T14:22:27.011Z,0.90
2018-08-25T14:24:56.122Z,1.00
2018-08-25T14:27:25.120Z,0.93
2018-08-25T14:29:54.302Z,0.70
2018-08-25T14:32:23.398Z,1.92
2018-08-25T14:34:52.534Z,1.27
2018-08-25T14:37:21.575Z,0.82
2018-08-25T14:39:50.579Z,0.80
2018-08-25T14:42:20.552Z,0.80
2018-08-25T14:44:49.874Z,1.00
2018-08-25T14:47:18.817Z,0.70
2018-08-25T14:49:47.895Z,0.93
2018-08-25T14:52:16.830Z,0.90
2018-08-25T14:54:45.868Z,1.40
2018-08-25T14:57:14.848Z,0.72
2018-08-25T14:59:43.830Z,1.00
2018-08-25T15:02:13.134Z,0.70
2018-08-25T15:04:42.454Z,0.80
2018-08-25T15:07:11.461Z,1.05
2018-08-25T15:09:40.481Z,1.00
2018-08-25T15:12:09.420Z,0.75
2018-08-25T15:14:38.375Z,0.90
2018-08-25T15:17:07.297Z,0.70
2018-08-25T15:19:36.449Z,1.12
2018-08-25T15:22:11.326Z,0.60
2018-08-25T15:24:42.436Z,0.78
2018-08-25T15:27:11.640Z,0.85
2018-08-25T15:29:40.555Z,0.72
2018-08-25T15:32:09.482Z,0.70
2018-08-25T15:34:38.522Z,0.88
2018-08-25T15:37:07.450Z,0.80
2018-08-25T15:39:36.489Z,0.70
2018-08-25T15:42:05.570Z,0.70
2018-08-25T15:44:34.465Z,0.60
2018-08-25T15:47:03.483Z,0.70
2018-08-25T15:49:32.467Z,0.90
2018-08-25T15:52:01.359Z,0.80
2018-08-25T15:54:30.262Z,0.95
2018-08-25T15:56:59.139Z,0.72
2018-08-25T15:59:28.153Z,0.80
2018-08-25T16:01:57.113Z,1.12
2018-08-25T16:04:26.178Z,0.82
2018-08-25T16:06:55.138Z,1.00
2018-08-25T16:09:24.106Z,1.00
2018-08-25T16:11:53.070Z,0.85
2018-08-25T16:14:21.962Z,0.80
2018-08-25T16:16:50.858Z,0.85
2018-08-25T16:19:20.133Z,0.98
2018-08-25T16:21:48.934Z,1.15
2018-08-25T16:24:17.842Z,0.75
2018-08-25T16:26:46.722Z,0.70
2018-08-25T16:29:15.687Z,0.60
2018-08-25T16:31:44.608Z,0.68
2018-08-25T16:34:13.612Z,0.60
2018-08-25T16:36:42.601Z,0.60
2018-08-25T16:39:11.502Z,0.75
2018-08-25T16:41:40.426Z,0.70
2018-08-25T16:44:09.568Z,0.80
2018-08-25T16:46:39.031Z,0.60
2018-08-25T16:49:08.072Z,0.80
2018-08-25T16:51:36.990Z,0.80
2018-08-25T16:54:06.066Z,0.80
2018-08-25T16:56:34.994Z,0.90
2018-08-25T16:59:04.064Z,0.95
2018-08-25T17:01:32.941Z,0.88
2018-08-25T17:04:01.846Z,0.70
2018-08-25T17:06:30.871Z,0.90
2018-08-25T17:08:59.771Z,0.70
2018-08-25T17:11:28.778Z,0.75
2018-08-25T17:13:57.694Z,0.93
2018-08-25T17:16:26.619Z,0.70
2018-08-25T17:18:55.682Z,0.60
2018-08-25T17:21:24.687Z,0.80
2018-08-25T17:23:53.806Z,0.70
2018-08-25T17:26:22.928Z,0.90
2018-08-25T17:28:51.938Z,0.65
2018-08-25T17:31:20.922Z,0.90
2018-08-25T17:33:49.874Z,0.80
2018-08-25T17:36:18.908Z,0.90
2018-08-25T17:38:47.963Z,1.70
2018-08-25T17:41:16.803Z,0.98
2018-08-25T17:43:45.750Z,1.22
2018-08-25T17:46:14.681Z,1.17
2018-08-25T17:48:43.891Z,0.85
2018-08-25T17:51:12.960Z,1.00
2018-08-25T17:53:41.863Z,2.25
2018-08-25T17:56:10.970Z,1.67
2018-08-25T17:58:39.901Z,0.80
2018-08-25T18:01:08.821Z,1.00
2018-08-25T18:03:37.725Z,0.82
2018-08-25T18:06:06.714Z,0.98
2018-08-25T18:08:35.646Z,1.05
2018-08-25T18:11:04.628Z,1.00
2018-08-25T18:13:33.637Z,0.90
2018-08-25T18:16:02.630Z,0.93
2018-08-25T18:18:31.588Z,0.68
2018-08-25T18:21:00.694Z,0.80
2018-08-25T18:23:29.665Z,1.10
2018-08-25T18:25:58.696Z,1.15
2018-08-25T18:28:27.580Z,0.90
2018-08-25T18:30:56.598Z,1.05
2018-08-25T18:33:25.593Z,1.00
2018-08-25T18:35:54.475Z,1.12
2018-08-25T18:38:24.280Z,1.10
2018-08-25T18:40:53.281Z,1.00
2018-08-25T18:43:22.369Z,1.15
2018-08-25T18:45:51.342Z,1.30
2018-08-25T18:48:20.381Z,1.15
2018-08-25T18:50:49.162Z,1.05
2018-08-25T18:53:18.206Z,1.20
2018-08-25T18:55:47.120Z,1.17
2018-08-25T18:58:15.989Z,0.90
2018-08-25T19:00:44.889Z,0.95
2018-08-25T19:03:13.790Z,1.17
2018-08-25T19:05:42.675Z,1.30
2018-08-25T19:08:11.573Z,1.20
2018-08-25T19:10:40.458Z,1.07
2018-08-25T19:13:09.331Z,1.10
2018-08-25T19:15:38.225Z,1.00
2018-08-25T19:18:07.190Z,0.90
2018-08-25T19:20:36.110Z,1.50
2018-08-25T19:23:05.018Z,0.90
2018-08-25T19:25:33.899Z,1.00
2018-08-25T19:28:02.782Z,0.98
2018-08-25T19:30:31.682Z,1.20
2018-08-25T19:33:00.576Z,1.12
2018-08-25T19:35:29.524Z,1.00
2018-08-25T19:37:58.375Z,1.37
2018-08-25T19:40:27.287Z,1.30
2018-08-25T19:42:56.206Z,1.20
2018-08-25T19:45:25.102Z,1.25
2018-08-25T19:47:54.073Z,1.00
2018-08-25T19:50:23.035Z,1.42
2018-08-25T19:52:52.058Z,1.90
2018-08-25T19:55:21.193Z,0.90
2018-08-25T19:57:50.081Z,1.27
2018-08-25T20:00:19.091Z,1.50
2018-08-25T20:02:47.922Z,1.00
2018-08-25T20:05:16.903Z,1.20
2018-08-25T20:07:52.434Z,1.37
2018-08-25T20:10:21.434Z,1.20
2018-08-25T20:12:50.371Z,1.10
2018-08-25T20:15:19.309Z,1.00
2018-08-25T20:17:48.202Z,1.20
2018-08-25T20:20:17.098Z,1.60
2018-08-25T20:22:45.974Z,1.22
2018-08-25T20:25:14.874Z,1.55
2018-08-25T20:27:43.867Z,1.45
2018-08-25T20:30:12.880Z,1.47
2018-08-25T20:32:41.762Z,1.45
2018-08-25T20:35:10.706Z,1.45
2018-08-25T20:37:39.616Z,1.30
2018-08-25T20:40:08.506Z,1.45
2018-08-25T20:42:37.391Z,1.60
2018-08-25T20:45:06.344Z,1.30
2018-08-25T20:47:35.253Z,1.00
2018-08-25T20:50:04.426Z,1.35
2018-08-25T20:52:33.311Z,1.60
2018-08-25T20:55:02.206Z,1.20
2018-08-25T20:57:31.123Z,1.30
2018-08-25T21:00:00.189Z,1.10
2018-08-25T21:02:29.165Z,2.75
2018-08-25T21:04:58.284Z,1.80
2018-08-25T21:07:27.214Z,1.25
2018-08-25T21:09:56.130Z,1.25
2018-08-25T21:12:25.138Z,1.60
2018-08-25T21:14:54.054Z,1.47
2018-08-25T21:17:23.021Z,1.47
2018-08-25T21:19:52.130Z,1.35
2018-08-25T21:22:21.050Z,1.30
2018-08-25T21:24:49.946Z,1.80
2018-08-25T21:27:18.918Z,1.40
2018-08-25T21:29:47.794Z,1.10
2018-08-25T21:32:16.802Z,1.20
2018-08-25T21:34:45.713Z,1.50
2018-08-25T21:37:14.610Z,1.55
2018-08-25T21:39:43.482Z,1.87
2018-08-25T21:42:12.358Z,1.50
2018-08-25T21:44:41.239Z,1.72
2018-08-25T21:47:10.113Z,1.77
2018-08-25T21:49:39.098Z,1.80
2018-08-25T21:52:07.982Z,1.82
2018-08-25T21:54:36.870Z,1.30
2018-08-25T21:57:05.782Z,1.35
2018-08-25T21:59:34.653Z,2.17
2018-08-25T22:02:03.549Z,1.47
2018-08-25T22:04:32.445Z,1.90
2018-08-25T22:07:01.342Z,1.80
2018-08-25T22:09:30.230Z,1.80
2018-08-25T22:11:59.131Z,1.82
2018-08-25T22:14:28.019Z,1.82
2018-08-25T22:16:56.962Z,2.00
2018-08-25T22:19:25.857Z,1.45
2018-08-25T22:21:54.843Z,1.90
2018-08-25T22:24:23.886Z,1.60
2018-08-25T22:26:52.784Z,1.90
2018-08-25T22:29:22.682Z,2.55
2018-08-25T22:31:51.586Z,1.40
2018-08-25T22:34:20.619Z,1.75
2018-08-25T22:36:49.517Z,2.12
2018-08-25T22:39:18.450Z,1.90
2018-08-25T22:41:47.442Z,2.17
2018-08-25T22:44:16.204Z,1.45
2018-08-25T22:46:45.081Z,1.60
2018-08-25T22:49:13.970Z,1.65
2018-08-25T22:51:42.866Z,1.50
2018-08-25T22:54:11.755Z,1.57
2018-08-25T22:56:40.632Z,1.40
2018-08-25T22:59:09.515Z,1.30
2018-08-25T23:01:38.393Z,1.70
2018-08-25T23:04:07.266Z,2.47
2018-08-25T23:06:36.194Z,1.45
2018-08-25T23:09:07.394Z,1.85
2018-08-25T23:11:36.459Z,1.82
2018-08-25T23:14:05.762Z,1.57
2018-08-25T23:16:34.655Z,1.35
2018-08-25T23:19:03.678Z,1.50
2018-08-25T23:21:32.556Z,1.70
2018-08-25T23:24:01.477Z,1.70
2018-08-25T23:26:30.386Z,2.00
2018-08-25T23:28:59.282Z,1.67
2018-08-25T23:31:28.245Z,1.87
2018-08-25T23:33:57.178Z,1.52
2018-08-25T23:36:26.098Z,1.70
2018-08-25T23:38:54.999Z,2.08
2018-08-25T23:41:23.942Z,1.45
2018-08-25T23:43:52.959Z,1.92
2018-08-25T23:46:21.927Z,2.08
2018-08-25T23:48:50.814Z,1.50
2018-08-25T23:51:19.739Z,1.62
2018-08-25T23:53:48.618Z,1.80
2018-08-25T23:56:17.498Z,1.47
2018-08-25T23:58:46.366Z,1.42
